METAR Data
IDs: Format: Raw Decoded Include TAF

Data at: 0250 UTC 24 Oct 2019

METAR for:KTVK (Centerville Muni, IA, US)
Text:KTVK 240235Z AUTO 31014G19KT 10SM BKN013 07/06 A3009 RMK AO2
Temperature: 7.0°C ( 45°F)
Dewpoint: 6.0°C ( 43°F) [RH = 93%]
Pressure (altimeter):30.09 inches Hg (1019.0 mb)
Winds:from the NW (310 degrees) at 16 MPH (14 knots; 7.2 m/s) gusting to 22 MPH (19 knots; 9.8 m/s)
Visibility:10 or more sm (16+ km)
Ceiling:1300 feet AGL
Clouds: broken clouds at 1300 feet AGL
QC Flag:automated observation with no human augmentation